createdAt,value
2022-12-25T00:00:20.425Z,86.56
2022-12-25T00:05:12.571Z,85.94
2022-12-25T00:10:06.022Z,86.02
2022-12-25T00:14:57.643Z,85.20
2022-12-25T00:19:49.297Z,85.41
2022-12-25T00:24:40.887Z,84.75
2022-12-25T00:29:32.743Z,84.80
2022-12-25T00:34:25.099Z,84.51
2022-12-25T00:39:16.711Z,84.72
2022-12-25T00:44:10.760Z,85.18
2022-12-25T00:49:03.013Z,84.97
2022-12-25T00:53:56.108Z,84.91
2022-12-25T00:58:47.700Z,85.27
2022-12-25T01:03:39.292Z,84.94
2022-12-25T01:08:34.090Z,85.13
2022-12-25T01:13:28.510Z,84.99
2022-12-25T01:18:21.911Z,85.24
2022-12-25T01:23:14.370Z,85.63
2022-12-25T01:28:06.551Z,85.75
2022-12-25T01:32:58.229Z,85.60
2022-12-25T01:37:52.805Z,85.93
2022-12-25T01:42:44.877Z,86.04
2022-12-25T01:47:36.432Z,85.52
2022-12-25T01:52:29.059Z,85.64
2022-12-25T01:57:27.053Z,85.44
2022-12-25T02:02:21.416Z,85.32
2022-12-25T02:07:22.386Z,85.33
2022-12-25T02:12:21.979Z,85.08
2022-12-25T02:17:19.520Z,85.35
2022-12-25T02:22:39.444Z,85.11
2022-12-25T02:27:52.480Z,85.38
2022-12-25T02:33:16.153Z,86.06
2022-12-25T02:38:19.471Z,85.49
2022-12-25T02:43:38.162Z,85.38
2022-12-25T02:48:52.665Z,85.14
2022-12-25T02:54:05.464Z,85.03
2022-12-25T02:59:17.560Z,85.07
2022-12-25T03:04:32.310Z,85.00
2022-12-25T03:09:46.868Z,84.90
2022-12-25T03:14:57.625Z,85.14
2022-12-25T03:20:07.951Z,84.89
2022-12-25T03:25:18.751Z,84.58
2022-12-25T03:30:30.425Z,84.81
2022-12-25T03:35:49.477Z,84.80
2022-12-25T03:41:31.001Z,84.81
2022-12-25T03:46:47.174Z,84.60
2022-12-25T03:51:59.108Z,83.87
2022-12-25T03:57:09.903Z,84.42
2022-12-25T04:02:20.163Z,84.76
2022-12-25T04:07:33.621Z,84.90
2022-12-25T04:12:43.671Z,84.74
2022-12-25T04:17:54.016Z,84.57
2022-12-25T04:23:04.836Z,84.70
2022-12-25T04:28:22.306Z,84.33
2022-12-25T04:33:32.501Z,84.18
2022-12-25T04:38:24.524Z,84.01
2022-12-25T04:43:20.174Z,83.66
2022-12-25T04:48:11.762Z,83.59
2022-12-25T04:53:03.474Z,83.59
2022-12-25T04:57:55.048Z,83.60
2022-12-25T05:02:47.437Z,83.85
2022-12-25T05:07:39.082Z,84.45
2022-12-25T05:12:30.669Z,84.91
2022-12-25T05:17:22.305Z,84.91
2022-12-25T05:22:14.664Z,84.69
2022-12-25T05:27:06.344Z,84.56
2022-12-25T05:31:58.063Z,84.75
2022-12-25T05:36:49.660Z,85.18
2022-12-25T05:41:41.211Z,85.56
2022-12-25T05:46:32.772Z,85.04
2022-12-25T05:51:26.014Z,84.47
2022-12-25T05:56:17.652Z,84.12
2022-12-25T06:01:18.398Z,84.15
2022-12-25T06:06:10.379Z,84.43
2022-12-25T06:11:04.668Z,84.08
2022-12-25T06:15:56.303Z,84.51
2022-12-25T06:20:48.986Z,84.34
2022-12-25T06:25:40.935Z,83.97
2022-12-25T06:30:33.709Z,83.74
2022-12-25T06:35:26.727Z,84.02
2022-12-25T06:40:20.081Z,83.96
2022-12-25T06:45:11.790Z,84.57
2022-12-25T06:50:06.101Z,84.93
2022-12-25T06:54:57.614Z,84.95
2022-12-25T06:59:54.737Z,84.46
2022-12-25T07:04:47.720Z,84.25
2022-12-25T07:09:43.139Z,84.40
2022-12-25T07:14:34.656Z,84.31
2022-12-25T07:19:26.415Z,84.67
2022-12-25T07:24:22.193Z,84.51
2022-12-25T07:29:16.171Z,84.13
2022-12-25T07:34:08.166Z,84.36
2022-12-25T07:38:59.745Z,85.16
2022-12-25T07:43:54.014Z,85.39
2022-12-25T07:48:45.606Z,85.17
2022-12-25T07:53:38.090Z,84.89
2022-12-25T07:58:30.226Z,84.88
2022-12-25T08:03:21.945Z,84.75
2022-12-25T08:08:13.733Z,84.73
2022-12-25T08:13:09.095Z,85.15
2022-12-25T08:18:05.779Z,85.59
2022-12-25T08:22:57.372Z,86.34
2022-12-25T08:27:48.923Z,86.91
2022-12-25T08:32:40.504Z,87.68
2022-12-25T08:37:32.230Z,88.26
2022-12-25T08:42:23.994Z,88.32
2022-12-25T08:47:15.557Z,87.95
2022-12-25T08:52:07.771Z,88.02
2022-12-25T08:57:03.019Z,88.01
2022-12-25T09:01:55.057Z,87.76
2022-12-25T09:06:46.758Z,88.01
2022-12-25T09:11:38.327Z,87.60
2022-12-25T09:16:30.051Z,87.96
2022-12-25T09:21:22.720Z,88.20
2022-12-25T09:26:16.218Z,89.00
2022-12-25T09:31:07.897Z,90.29
2022-12-25T09:36:02.163Z,90.95
2022-12-25T09:41:03.596Z,92.78
2022-12-25T09:45:57.230Z,93.08
2022-12-25T09:50:54.559Z,93.94
2022-12-25T09:56:09.229Z,93.64
2022-12-25T10:01:31.179Z,94.03
2022-12-25T10:06:30.514Z,94.22
2022-12-25T10:11:33.672Z,95.00
2022-12-25T10:16:46.695Z,94.95
2022-12-25T10:21:38.708Z,95.23
2022-12-25T10:26:33.237Z,95.54
2022-12-25T10:31:28.394Z,95.32
2022-12-25T10:36:26.811Z,95.11
2022-12-25T10:41:49.925Z,96.23
2022-12-25T10:46:47.350Z,96.55
2022-12-25T10:51:39.723Z,96.35
2022-12-25T10:56:31.277Z,96.49
2022-12-25T11:01:27.989Z,96.63
2022-12-25T11:06:28.940Z,96.68
2022-12-25T11:11:21.561Z,96.61
2022-12-25T11:16:15.165Z,96.28
2022-12-25T11:21:27.955Z,96.53
2022-12-25T11:26:19.552Z,96.25
2022-12-25T11:31:19.592Z,95.69
2022-12-25T11:36:28.507Z,95.25
2022-12-25T11:41:23.196Z,95.00
2022-12-25T11:46:26.665Z,94.17
2022-12-25T11:51:19.899Z,93.98
2022-12-25T11:56:18.533Z,94.17
2022-12-25T12:01:44.521Z,93.02
2022-12-25T12:07:00.142Z,93.27
2022-12-25T12:12:07.460Z,92.56
2022-12-25T12:17:00.220Z,92.20
2022-12-25T12:21:55.500Z,91.91
2022-12-25T12:26:59.313Z,91.97
2022-12-25T12:31:52.053Z,91.88
2022-12-25T12:36:44.619Z,91.84
2022-12-25T12:41:48.523Z,91.42
2022-12-25T12:46:51.375Z,91.76
2022-12-25T12:51:42.912Z,92.17
2022-12-25T12:56:35.237Z,91.32
2022-12-25T13:01:26.807Z,91.13
2022-12-25T13:06:25.504Z,91.52
2022-12-25T13:11:24.087Z,91.51
2022-12-25T13:16:36.197Z,90.76
2022-12-25T13:21:29.700Z,91.08
2022-12-25T13:26:21.266Z,91.37
2022-12-25T13:31:13.162Z,89.99
2022-12-25T13:36:12.297Z,89.51
2022-12-25T13:41:22.956Z,89.02
2022-12-25T13:46:15.874Z,88.93
2022-12-25T13:51:15.992Z,89.86
2022-12-25T13:56:14.986Z,89.26
2022-12-25T14:01:07.358Z,88.99
2022-12-25T14:06:01.681Z,89.26
2022-12-25T14:10:54.599Z,88.80
2022-12-25T14:15:49.001Z,89.32
2022-12-25T14:20:42.682Z,88.71
2022-12-25T14:25:41.611Z,89.44
2022-12-25T14:30:33.643Z,89.03
2022-12-25T14:35:28.735Z,88.56
2022-12-25T14:40:21.699Z,88.18
2022-12-25T14:45:34.638Z,87.53
2022-12-25T14:50:28.620Z,86.91
2022-12-25T14:55:24.531Z,87.00
2022-12-25T15:00:45.412Z,86.50
2022-12-25T15:05:37.916Z,86.79
2022-12-25T15:15:49.978Z,87.13
2022-12-25T15:20:42.463Z,87.50
2022-12-25T15:25:34.085Z,87.07
2022-12-25T15:30:25.744Z,87.74
2022-12-25T15:35:22.288Z,88.58
2022-12-25T15:40:16.239Z,89.05
2022-12-25T15:45:28.658Z,89.05
2022-12-25T15:50:21.979Z,88.78
2022-12-25T15:55:16.561Z,89.46
2022-12-25T16:00:13.435Z,89.14
2022-12-25T16:05:10.329Z,88.66
2022-12-25T16:10:02.431Z,88.72
2022-12-25T16:14:54.765Z,88.24
2022-12-25T16:19:46.383Z,88.08
2022-12-25T16:24:37.935Z,87.60
2022-12-25T16:29:29.512Z,87.27
2022-12-25T16:34:22.168Z,87.28
2022-12-25T16:39:13.755Z,86.71
2022-12-25T16:44:09.605Z,86.39
2022-12-25T16:49:01.252Z,85.66
2022-12-25T16:53:53.557Z,84.92
2022-12-25T16:58:46.876Z,84.39
2022-12-25T17:03:40.604Z,84.52
2022-12-25T17:08:32.171Z,84.46
2022-12-25T17:13:23.809Z,84.46
2022-12-25T17:18:21.711Z,84.46
2022-12-25T17:23:13.340Z,83.64
2022-12-25T17:28:04.980Z,83.87
2022-12-25T17:32:57.543Z,84.49
2022-12-25T17:37:49.147Z,84.21
2022-12-25T17:42:41.314Z,84.25
2022-12-25T17:47:33.279Z,83.77
2022-12-25T17:52:24.980Z,83.40
2022-12-25T17:57:16.849Z,83.50
2022-12-25T18:02:10.371Z,82.33
2022-12-25T18:07:03.278Z,82.32
2022-12-25T18:11:55.260Z,81.06
2022-12-25T18:16:47.413Z,79.62
2022-12-25T18:21:41.293Z,80.48
2022-12-25T18:26:33.559Z,79.01
2022-12-25T18:31:27.421Z,80.47
2022-12-25T18:36:23.228Z,80.53
2022-12-25T18:41:15.168Z,80.49
2022-12-25T18:46:09.956Z,80.38
2022-12-25T18:51:08.323Z,79.91
2022-12-25T18:56:07.080Z,80.05
2022-12-25T19:00:59.033Z,79.47
2022-12-25T19:05:50.604Z,79.02
2022-12-25T19:10:44.063Z,79.76
2022-12-25T19:15:40.312Z,79.11
2022-12-25T19:20:32.017Z,79.53
2022-12-25T19:25:23.577Z,79.68
2022-12-25T19:30:15.251Z,79.61
2022-12-25T19:35:07.275Z,78.88
2022-12-25T19:39:59.545Z,79.29
2022-12-25T19:44:51.695Z,79.91
2022-12-25T19:49:45.220Z,80.91
2022-12-25T19:54:40.603Z,80.72
2022-12-25T19:59:32.657Z,79.75
2022-12-25T20:04:24.379Z,80.31
2022-12-25T20:09:21.227Z,80.65
2022-12-25T20:14:16.121Z,80.73
2022-12-25T20:19:08.480Z,80.24
2022-12-25T20:24:00.275Z,80.36
2022-12-25T20:28:52.796Z,80.61
2022-12-25T20:33:45.014Z,80.57
2022-12-25T20:38:37.431Z,80.48
2022-12-25T20:43:29.208Z,80.13
2022-12-25T20:48:20.890Z,80.11
2022-12-25T20:53:12.600Z,80.05
2022-12-25T20:58:04.172Z,78.41
2022-12-25T21:02:55.807Z,77.90
2022-12-25T21:07:47.641Z,77.20
2022-12-25T21:12:39.299Z,77.53
2022-12-25T21:17:32.713Z,77.00
2022-12-25T21:22:24.444Z,76.95
2022-12-25T21:27:16.021Z,76.22
2022-12-25T21:32:26.725Z,76.45
2022-12-25T21:37:20.498Z,75.80
2022-12-25T21:42:12.465Z,75.70
2022-12-25T21:47:04.170Z,75.76
2022-12-25T21:52:07.806Z,74.91
2022-12-25T21:56:59.369Z,74.99
2022-12-25T22:01:52.965Z,74.62
2022-12-25T22:07:04.261Z,74.34
2022-12-25T22:12:14.633Z,74.26
2022-12-25T22:17:25.841Z,74.11
2022-12-25T22:22:22.971Z,74.04
2022-12-25T22:27:14.908Z,73.81
2022-12-25T22:32:06.790Z,73.14
2022-12-25T22:36:59.115Z,72.73
2022-12-25T22:41:54.959Z,72.67
2022-12-25T22:46:47.152Z,72.30
2022-12-25T22:51:38.746Z,72.34
2022-12-25T22:56:30.323Z,72.32
2022-12-25T23:01:21.986Z,72.40
2022-12-25T23:06:13.911Z,72.41
2022-12-25T23:11:05.809Z,72.43
2022-12-25T23:15:57.439Z,73.04
2022-12-25T23:21:08.184Z,72.94
2022-12-25T23:26:09.129Z,73.07
2022-12-25T23:31:00.792Z,72.46
2022-12-25T23:35:52.606Z,72.94
2022-12-25T23:40:44.208Z,73.05
2022-12-25T23:45:35.747Z,72.30
2022-12-25T23:50:27.364Z,72.48
2022-12-25T23:55:18.903Z,72.58
